Time;durP1;ratioP1;P1;durP2;ratioP2;P2;SDS_P1;SDS_P2;PMS_P1;PMS_P2;Temp;Humidity;BMP_temperature;BMP_pressure;BME280_temperature;BME280_humidity;BME280_pressure;Samples;Min_cycle;Max_cycle;Signal;HPM_P1;HPM_P2
2023/09/29 00:02:16;;;;;;;0.20;0.20;;;16.30;99.90;;;;;;5086642;28;20043;-73
2023/09/29 00:04:42;;;;;;;0.20;0.20;;;16.30;99.90;;;;;;5082986;28;20040;-74
2023/09/29 00:07:08;;;;;;;0.28;0.28;;;16.30;99.90;;;;;;5095185;28;20040;-73
2023/09/29 00:09:34;;;;;;;0.10;0.10;;;16.30;99.90;;;;;;5088114;28;20044;-74
2023/09/29 00:12:00;;;;;;;0.20;0.20;;;16.30;99.90;;;;;;5085131;28;20054;-74
2023/09/29 00:14:26;;;;;;;0.20;0.20;;;16.30;99.90;;;;;;5088178;28;20470;-73
2023/09/29 00:16:51;;;;;;;0.10;0.10;;;16.30;99.90;;;;;;5087954;28;20048;-73
2023/09/29 00:19:17;;;;;;;0.10;0.10;;;16.30;99.90;;;;;;5088098;28;20441;-73
2023/09/29 00:21:43;;;;;;;0.20;0.20;;;16.30;99.90;;;;;;5086258;28;20143;-74
2023/09/29 00:24:08;;;;;;;0.17;0.17;;;16.20;99.90;;;;;;5070736;28;20074;-74
2023/09/29 00:26:34;;;;;;;0.10;0.10;;;16.30;99.90;;;;;;5086801;28;20036;-73
2023/09/29 00:29:01;;;;;;;0.20;0.20;;;16.30;99.90;;;;;;5086350;28;20125;-73
2023/09/29 00:31:27;;;;;;;0.20;0.20;;;16.30;99.90;;;;;;5087506;28;20052;-73
2023/09/29 00:33:52;;;;;;;0.10;0.10;;;16.30;99.90;;;;;;5087880;28;20059;-73
2023/09/29 00:36:18;;;;;;;0.20;0.20;;;16.30;99.90;;;;;;5087842;28;20100;-74
2023/09/29 00:38:44;;;;;;;0.20;0.20;;;16.30;99.90;;;;;;5067611;28;20562;-73
2023/09/29 00:41:09;;;;;;;0.10;0.10;;;16.30;99.90;;;;;;5067917;28;20131;-74
2023/09/29 00:43:35;;;;;;;0.15;0.15;;;16.30;99.90;;;;;;5085214;28;20044;-73
2023/09/29 00:46:03;;;;;;;0.15;0.15;;;16.30;99.90;;;;;;5085911;28;20530;-73
2023/09/29 00:48:33;;;;;;;0.10;0.10;;;16.30;99.90;;;;;;5083888;28;20127;-74
2023/09/29 00:50:59;;;;;;;0.20;0.20;;;16.30;99.90;;;;;;5086066;28;20052;-74
2023/09/29 00:53:25;;;;;;;0.20;0.20;;;16.20;99.90;;;;;;5085447;28;20048;-74
2023/09/29 00:55:52;;;;;;;0.20;0.20;;;16.30;99.90;;;;;;5088156;28;20582;-73
2023/09/29 00:58:18;;;;;;;0.20;0.20;;;16.30;99.90;;;;;;5107838;28;20093;-74
2023/09/29 01:00:45;;;;;;;0.20;0.20;;;16.30;99.90;;;;;;5091019;28;20043;-74
2023/09/29 01:03:14;;;;;;;0.10;0.10;;;16.40;99.90;;;;;;5089663;28;20082;-74
2023/09/29 01:05:47;;;;;;;0.20;0.20;;;16.30;99.90;;;;;;5087311;28;20134;-73
2023/09/29 01:08:19;;;;;;;0.10;0.10;;;16.40;99.90;;;;;;5089115;28;20044;-73
2023/09/29 01:10:45;;;;;;;0.20;0.20;;;16.40;99.90;;;;;;5090701;28;20047;-74
2023/09/29 01:13:12;;;;;;;0.20;0.20;;;16.40;99.90;;;;;;5085821;28;20048;-73
2023/09/29 01:15:39;;;;;;;0.15;0.15;;;16.40;99.90;;;;;;5088161;28;20051;-73
2023/09/29 01:18:06;;;;;;;0.10;0.10;;;16.40;99.90;;;;;;5090534;28;20152;-74
2023/09/29 01:20:34;;;;;;;0.20;0.20;;;16.40;99.90;;;;;;5084936;28;20044;-74
2023/09/29 01:23:07;;;;;;;0.10;0.10;;;16.50;99.90;;;;;;5090334;28;20044;-74
2023/09/29 01:25:34;;;;;;;0.20;0.20;;;16.30;99.90;;;;;;5090789;28;20117;-73
2023/09/29 01:28:01;;;;;;;0.10;0.10;;;16.50;99.90;;;;;;5089364;28;20048;-74
2023/09/29 01:30:27;;;;;;;0.10;0.10;;;16.50;99.90;;;;;;5088109;28;20094;-73
2023/09/29 01:32:57;;;;;;;0.20;0.20;;;16.50;99.90;;;;;;5089344;28;20458;-73
2023/09/29 01:35:27;;;;;;;0.17;0.17;;;16.50;99.90;;;;;;5088480;28;20113;-73
2023/09/29 01:37:55;;;;;;;0.13;0.13;;;16.50;99.90;;;;;;5087163;28;20380;-73
2023/09/29 01:40:22;;;;;;;0.20;0.20;;;16.50;99.90;;;;;;5085910;28;20052;-73
2023/09/29 01:42:49;;;;;;;0.10;0.10;;;16.50;99.90;;;;;;5087980;28;20438;-74
2023/09/29 01:45:16;;;;;;;0.20;0.20;;;16.50;99.90;;;;;;5090440;28;20044;-73
2023/09/29 01:47:47;;;;;;;0.10;0.10;;;16.50;99.90;;;;;;5087728;28;20044;-73
2023/09/29 01:50:17;;;;;;;;;;;16.50;99.90;;;;;;5087053;28;20093;-73
2023/09/29 01:52:46;;;;;;;0.20;0.20;;;16.50;99.90;;;;;;5089072;28;20286;-73
2023/09/29 01:55:16;;;;;;;0.10;0.10;;;16.40;99.90;;;;;;5086748;28;20036;-73
2023/09/29 01:57:46;;;;;;;0.10;0.10;;;16.40;99.90;;;;;;5089157;28;20047;-73
2023/09/29 02:00:23;;;;;;;0.20;0.20;;;16.40;99.90;;;;;;5088081;28;20044;-74
2023/09/29 02:02:52;;;;;;;0.20;0.20;;;16.40;99.90;;;;;;5086431;28;20040;-73
2023/09/29 02:05:18;;;;;;;0.20;0.20;;;16.40;99.90;;;;;;5088844;28;20052;-73
2023/09/29 02:07:44;;;;;;;0.20;0.20;;;16.40;99.90;;;;;;5090480;28;20044;-73
2023/09/29 02:10:11;;;;;;;0.20;0.20;;;16.40;99.90;;;;;;5089552;28;20085;-73
2023/09/29 02:12:46;;;;;;;0.10;0.10;;;16.30;99.90;;;;;;5088493;28;20036;-74
2023/09/29 02:15:16;;;;;;;0.10;0.10;;;16.30;99.90;;;;;;5069376;28;20064;-73
2023/09/29 02:17:42;;;;;;;0.20;0.20;;;16.30;99.90;;;;;;5085505;28;20458;-73
2023/09/29 02:20:13;;;;;;;0.20;0.20;;;16.30;99.90;;;;;;5089533;28;20044;-74
2023/09/29 02:22:39;;;;;;;0.10;0.10;;;16.30;99.90;;;;;;5090322;28;20090;-73
2023/09/29 02:25:06;;;;;;;0.10;0.10;;;16.30;99.90;;;;;;5090040;28;20124;-73
2023/09/29 02:27:32;;;;;;;0.20;0.20;;;16.20;99.90;;;;;;5090577;28;20066;-73
2023/09/29 02:29:58;;;;;;;0.10;0.10;;;16.20;99.90;;;;;;5088798;28;20131;-74
2023/09/29 02:32:24;;;;;;;0.20;0.20;;;16.20;99.90;;;;;;5091627;28;20044;-74
2023/09/29 02:34:50;;;;;;;0.13;0.13;;;16.20;99.90;;;;;;5089231;28;20047;-73
2023/09/29 02:37:15;;;;;;;0.20;0.20;;;16.20;99.90;;;;;;5089707;28;20048;-74
2023/09/29 02:39:41;;;;;;;0.20;0.20;;;16.20;99.90;;;;;;5082371;28;20036;-74
2023/09/29 02:42:07;;;;;;;0.13;0.13;;;16.30;99.90;;;;;;5091507;28;20068;-73
2023/09/29 02:44:33;;;;;;;0.10;0.10;;;16.30;99.90;;;;;;5088750;28;20044;-73
2023/09/29 02:46:59;;;;;;;0.17;0.17;;;16.30;99.90;;;;;;5089459;28;20042;-73
2023/09/29 02:49:28;;;;;;;0.10;0.10;;;16.30;99.90;;;;;;5089019;28;20070;-73
2023/09/29 02:51:54;;;;;;;0.10;0.10;;;16.30;99.90;;;;;;5088549;28;20055;-74
2023/09/29 02:54:19;;;;;;;0.10;0.10;;;16.30;99.90;;;;;;5090722;28;20078;-73
2023/09/29 02:56:45;;;;;;;0.20;0.20;;;16.30;99.90;;;;;;5086690;28;20060;-74
2023/09/29 02:59:12;;;;;;;0.20;0.20;;;16.30;99.90;;;;;;5084818;28;20097;-73
2023/09/29 03:01:38;;;;;;;0.17;0.17;;;16.30;99.90;;;;;;5089116;28;20079;-73
2023/09/29 03:04:07;;;;;;;0.20;0.20;;;16.30;99.90;;;;;;5087544;28;20058;-73
2023/09/29 03:06:32;;;;;;;0.20;0.20;;;16.30;99.90;;;;;;5081863;28;20502;-73
2023/09/29 03:08:59;;;;;;;0.20;0.20;;;16.30;99.90;;;;;;5083646;28;20048;-74
2023/09/29 03:11:25;;;;;;;0.13;0.13;;;16.30;99.90;;;;;;5087417;28;20047;-72
2023/09/29 03:13:54;;;;;;;0.13;0.13;;;16.40;99.90;;;;;;5088849;28;20071;-73
2023/09/29 03:16:21;;;;;;;0.20;0.20;;;16.40;99.90;;;;;;5089571;28;20098;-73
2023/09/29 03:18:47;;;;;;;0.20;0.20;;;16.40;99.90;;;;;;5087129;28;20498;-73
2023/09/29 03:21:13;;;;;;;0.20;0.20;;;16.40;99.90;;;;;;5089167;28;20085;-73
2023/09/29 03:23:39;;;;;;;0.13;0.13;;;16.40;99.90;;;;;;5088550;28;20051;-72
2023/09/29 03:26:05;;;;;;;0.20;0.20;;;16.40;99.90;;;;;;5087836;28;20051;-73
2023/09/29 03:28:35;;;;;;;0.10;0.10;;;16.30;99.90;;;;;;5085435;28;20044;-73
2023/09/29 03:31:04;;;;;;;0.20;0.20;;;16.40;99.90;;;;;;5088272;28;20479;-73
2023/09/29 03:33:29;;;;;;;0.20;0.20;;;16.30;99.90;;;;;;5087325;28;20119;-73
2023/09/29 03:35:55;;;;;;;0.20;0.20;;;16.30;99.90;;;;;;5086686;28;20548;-73
2023/09/29 03:38:24;;;;;;;0.10;0.10;;;16.40;99.90;;;;;;5088553;28;20048;-73
2023/09/29 03:40:52;;;;;;;0.17;0.17;;;16.30;99.90;;;;;;5082195;28;20132;-73
2023/09/29 03:43:18;;;;;;;0.20;0.20;;;16.30;99.90;;;;;;5089004;28;20089;-73
2023/09/29 03:45:46;;;;;;;0.20;0.20;;;16.30;99.90;;;;;;5089613;28;20044;-73
2023/09/29 03:48:15;;;;;;;0.10;0.10;;;16.30;99.90;;;;;;5089778;28;20104;-73
2023/09/29 03:50:41;;;;;;;0.20;0.20;;;16.30;99.90;;;;;;5085707;28;20048;-73
2023/09/29 03:53:07;;;;;;;0.20;0.20;;;16.30;99.90;;;;;;5089356;28;20051;-73
2023/09/29 03:55:33;;;;;;;0.20;0.20;;;16.30;99.90;;;;;;5087059;28;20551;-73
2023/09/29 03:58:00;;;;;;;0.10;0.10;;;16.30;99.90;;;;;;5088710;28;20177;-73
2023/09/29 04:00:26;;;;;;;0.10;0.10;;;16.30;99.90;;;;;;5086387;28;20059;-73
2023/09/29 04:02:52;;;;;;;0.13;0.13;;;16.30;99.90;;;;;;5081812;28;20049;-73
2023/09/29 04:05:19;;;;;;;0.20;0.20;;;16.30;99.90;;;;;;5083172;28;20047;-73
2023/09/29 04:07:45;;;;;;;0.20;0.20;;;16.30;99.90;;;;;;5071003;28;20044;-73
2023/09/29 04:10:12;;;;;;;0.20;0.20;;;16.30;99.90;;;;;;5085497;28;20084;-73
2023/09/29 04:12:42;;;;;;;0.20;0.20;;;16.30;99.90;;;;;;5088622;28;20097;-73
2023/09/29 04:15:08;;;;;;;0.20;0.20;;;16.30;99.90;;;;;;5086823;28;20044;-73
2023/09/29 04:17:37;;;;;;;0.15;0.15;;;16.40;99.90;;;;;;5086927;28;20052;-73
2023/09/29 04:20:05;;;;;;;0.15;0.15;;;16.40;99.90;;;;;;5084119;28;20047;-73
2023/09/29 04:22:32;;;;;;;0.20;0.20;;;16.40;99.90;;;;;;5070857;28;20052;-73
2023/09/29 04:24:57;;;;;;;0.20;0.20;;;16.40;99.90;;;;;;5086381;28;20540;-73
2023/09/29 04:27:23;;;;;;;0.10;0.10;;;16.40;99.90;;;;;;5086063;28;20032;-73
2023/09/29 04:29:50;;;;;;;0.15;0.15;;;16.50;99.90;;;;;;5088582;28;20044;-73
2023/09/29 04:32:16;;;;;;;0.20;0.20;;;16.50;99.90;;;;;;5090301;28;20043;-73
2023/09/29 04:34:41;;;;;;;0.20;0.20;;;16.60;99.90;;;;;;5089958;28;20435;-73
2023/09/29 04:37:07;;;;;;;0.20;0.20;;;16.60;99.90;;;;;;5090255;28;20076;-73
2023/09/29 04:39:32;;;;;;;0.10;0.10;;;16.60;99.90;;;;;;5090702;28;20044;-73
2023/09/29 04:41:58;;;;;;;0.13;0.13;;;16.70;99.90;;;;;;5087272;28;20155;-73
2023/09/29 04:44:24;;;;;;;0.10;0.10;;;16.70;99.90;;;;;;5089600;28;20060;-73
2023/09/29 04:46:50;;;;;;;0.10;0.10;;;16.70;99.90;;;;;;5092112;28;20090;-73
2023/09/29 04:49:16;;;;;;;0.10;0.10;;;16.70;99.90;;;;;;5092364;28;20048;-74
2023/09/29 04:51:43;;;;;;;0.20;0.20;;;16.80;99.90;;;;;;5089946;28;20380;-73
2023/09/29 04:54:10;;;;;;;0.10;0.10;;;16.80;99.90;;;;;;5092346;28;20489;-73
2023/09/29 04:56:36;;;;;;;0.20;0.20;;;16.80;99.90;;;;;;5092086;28;20138;-74
2023/09/29 04:59:01;;;;;;;0.20;0.20;;;16.80;99.90;;;;;;5090514;28;20051;-73
2023/09/29 05:01:27;;;;;;;0.10;0.10;;;16.80;99.90;;;;;;5087223;28;20044;-74
2023/09/29 05:03:53;;;;;;;0.20;0.20;;;16.80;99.90;;;;;;5085724;28;20080;-73
2023/09/29 05:06:19;;;;;;;0.28;0.28;;;16.80;99.90;;;;;;5090682;28;20055;-73
2023/09/29 05:08:45;;;;;;;0.10;0.10;;;16.80;99.90;;;;;;5091297;28;20480;-73
2023/09/29 05:11:22;;;;;;;0.10;0.10;;;16.80;99.90;;;;;;5090681;28;20048;-74
2023/09/29 05:13:48;;;;;;;0.10;0.10;;;16.80;99.90;;;;;;5092489;28;20044;-73
2023/09/29 05:16:14;;;;;;;0.20;0.20;;;16.80;99.90;;;;;;5091895;28;20060;-73
2023/09/29 05:18:39;;;;;;;0.10;0.10;;;16.80;99.90;;;;;;5090259;28;20067;-73
2023/09/29 05:21:05;;;;;;;0.20;0.20;;;16.80;99.90;;;;;;5091407;28;20127;-73
2023/09/29 05:23:31;;;;;;;0.15;0.15;;;16.80;99.90;;;;;;5091643;28;20078;-73
2023/09/29 05:26:01;;;;;;;0.20;0.20;;;16.80;99.90;;;;;;5090521;28;20052;-74
2023/09/29 05:28:27;;;;;;;0.20;0.20;;;16.80;99.90;;;;;;5091491;28;20395;-73
2023/09/29 05:30:54;;;;;;;0.10;0.10;;;16.80;99.90;;;;;;5091247;28;20127;-73
2023/09/29 05:33:20;;;;;;;0.15;0.15;;;16.80;99.90;;;;;;5091973;28;20140;-73
2023/09/29 05:35:48;;;;;;;0.20;0.20;;;16.80;99.90;;;;;;5089350;28;20128;-73
2023/09/29 05:38:14;;;;;;;0.20;0.20;;;16.80;99.90;;;;;;5088248;28;20085;-74
2023/09/29 05:40:39;;;;;;;0.20;0.20;;;16.70;99.90;;;;;;5087965;28;20503;-74
2023/09/29 05:43:10;;;;;;;0.20;0.20;;;16.70;99.90;;;;;;5077033;28;20106;-74
2023/09/29 05:45:37;;;;;;;0.10;0.10;;;16.70;99.90;;;;;;5084699;28;20112;-74
2023/09/29 05:48:03;;;;;;;0.20;0.20;;;16.80;99.90;;;;;;5087462;28;20312;-74
2023/09/29 05:50:29;;;;;;;0.10;0.10;;;16.70;99.90;;;;;;5090214;28;20040;-74
2023/09/29 05:52:56;;;;;;;0.20;0.20;;;16.80;99.90;;;;;;5090209;28;20085;-74
2023/09/29 05:55:22;;;;;;;0.15;0.15;;;16.70;99.90;;;;;;5090371;28;20059;-74
2023/09/29 05:57:49;;;;;;;0.20;0.20;;;16.80;99.90;;;;;;5079775;28;20045;-74
2023/09/29 06:00:15;;;;;;;0.20;0.20;;;16.80;99.90;;;;;;5070835;28;20048;-73
2023/09/29 06:02:41;;;;;;;0.10;0.10;;;16.80;99.90;;;;;;5076912;28;20039;-74
2023/09/29 06:05:07;;;;;;;0.17;0.17;;;16.80;99.90;;;;;;5086575;28;20842;-73
2023/09/29 06:07:33;;;;;;;0.20;0.20;;;16.80;99.90;;;;;;5083504;28;20032;-74
2023/09/29 06:09:59;;;;;;;0.10;0.10;;;16.80;99.90;;;;;;5087290;28;20135;-74
2023/09/29 06:12:25;;;;;;;0.17;0.17;;;16.80;99.90;;;;;;5091606;28;20067;-74
2023/09/29 06:14:50;;;;;;;0.10;0.10;;;16.90;99.90;;;;;;5088300;28;20080;-74
2023/09/29 06:17:16;;;;;;;0.10;0.10;;;16.90;99.90;;;;;;5089327;28;20487;-74
2023/09/29 06:19:41;;;;;;;0.15;0.15;;;16.80;99.90;;;;;;5086783;28;20052;-74
2023/09/29 06:22:07;;;;;;;0.20;0.20;;;16.80;99.90;;;;;;5089997;28;20052;-74
2023/09/29 06:24:33;;;;;;;0.20;0.20;;;16.80;99.90;;;;;;5088984;28;20059;-74
2023/09/29 06:26:59;;;;;;;0.20;0.20;;;16.90;99.90;;;;;;5086724;28;20131;-75
2023/09/29 06:29:24;;;;;;;0.10;0.10;;;16.90;99.90;;;;;;5087471;28;20047;-74
2023/09/29 06:31:50;;;;;;;0.10;0.10;;;16.90;99.90;;;;;;5089833;28;20043;-73
2023/09/29 06:34:16;;;;;;;0.10;0.10;;;16.90;99.90;;;;;;5089002;28;20044;-73
2023/09/29 06:36:43;;;;;;;0.20;0.20;;;16.90;99.90;;;;;;5085667;28;20055;-73
2023/09/29 06:39:09;;;;;;;0.20;0.20;;;16.90;99.90;;;;;;5089306;28;20075;-73
2023/09/29 06:41:34;;;;;;;0.20;0.20;;;17.00;99.90;;;;;;5087040;28;20125;-74
2023/09/29 06:44:00;;;;;;;0.20;0.20;;;17.00;99.90;;;;;;5081652;28;20059;-73
2023/09/29 06:46:25;;;;;;;0.20;0.20;;;17.00;99.90;;;;;;5089001;28;20175;-73
2023/09/29 06:48:52;;;;;;;0.20;0.20;;;17.00;99.90;;;;;;5088658;28;20052;-74
2023/09/29 06:51:18;;;;;;;0.10;0.10;;;17.00;99.90;;;;;;5088208;28;20079;-73
2023/09/29 06:53:44;;;;;;;0.20;0.20;;;17.00;99.90;;;;;;5088575;28;20428;-73
2023/09/29 06:56:10;;;;;;;0.20;0.20;;;17.10;99.90;;;;;;5088167;28;20135;-74
2023/09/29 06:58:36;;;;;;;0.20;0.20;;;17.10;99.90;;;;;;5087844;28;20131;-74
2023/09/29 07:01:02;;;;;;;0.20;0.20;;;17.20;99.90;;;;;;5083111;28;20155;-74
2023/09/29 07:03:31;;;;;;;0.20;0.20;;;17.10;99.90;;;;;;5086903;28;20059;-73
2023/09/29 07:05:59;;;;;;;0.20;0.20;;;17.10;99.90;;;;;;5086253;28;20596;-74
2023/09/29 07:08:25;;;;;;;0.20;0.20;;;17.20;99.90;;;;;;5090053;28;20070;-74
2023/09/29 07:10:50;;;;;;;0.20;0.20;;;17.20;99.90;;;;;;5086484;28;20040;-73
2023/09/29 07:13:16;;;;;;;0.20;0.20;;;17.20;99.90;;;;;;5089076;28;20519;-74
2023/09/29 07:15:42;;;;;;;0.20;0.20;;;17.20;99.90;;;;;;5087988;28;20052;-74
2023/09/29 07:18:10;;;;;;;0.10;0.10;;;17.30;99.90;;;;;;5082693;28;20143;-74
2023/09/29 07:20:37;;;;;;;0.22;0.22;;;17.30;99.90;;;;;;5089266;28;20079;-74
2023/09/29 07:23:04;;;;;;;0.10;0.10;;;17.40;99.90;;;;;;5088078;28;20055;-73
2023/09/29 07:25:29;;;;;;;0.20;0.20;;;17.40;99.90;;;;;;5088520;28;20128;-74
2023/09/29 07:27:55;;;;;;;0.20;0.20;;;17.40;99.90;;;;;;5084112;28;20565;-73
2023/09/29 07:30:21;;;;;;;0.20;0.20;;;17.40;99.90;;;;;;5085238;28;20071;-74
2023/09/29 07:32:47;;;;;;;0.20;0.20;;;17.50;99.90;;;;;;5099216;28;20055;-74
2023/09/29 07:35:12;;;;;;;0.10;0.10;;;17.50;99.90;;;;;;5088632;28;20039;-73
2023/09/29 07:37:38;;;;;;;0.20;0.20;;;17.60;99.90;;;;;;5088012;28;20531;-74
2023/09/29 07:40:08;;;;;;;0.20;0.20;;;17.60;99.90;;;;;;5086312;28;20095;-73
2023/09/29 07:42:34;;;;;;;0.10;0.10;;;17.60;99.90;;;;;;5086266;28;20040;-73
2023/09/29 07:44:59;;;;;;;0.10;0.10;;;17.60;99.90;;;;;;5078424;28;20089;-74
2023/09/29 07:47:25;;;;;;;0.20;0.20;;;17.70;99.90;;;;;;5087422;28;20122;-74
2023/09/29 07:49:51;;;;;;;0.13;0.13;;;17.80;99.90;;;;;;5089236;28;20036;-73
2023/09/29 07:52:16;;;;;;;0.20;0.20;;;17.80;99.90;;;;;;5090659;28;20051;-73
2023/09/29 07:54:42;;;;;;;0.20;0.20;;;17.90;99.90;;;;;;5087609;28;20080;-72
2023/09/29 07:57:08;;;;;;;0.10;0.10;;;17.90;99.90;;;;;;5087973;28;20052;-72
2023/09/29 07:59:33;;;;;;;0.20;0.20;;;18.00;99.90;;;;;;5086400;28;20483;-72
2023/09/29 08:01:59;;;;;;;0.15;0.15;;;18.00;99.90;;;;;;5084109;28;20059;-72
2023/09/29 08:04:25;;;;;;;0.20;0.20;;;18.10;99.90;;;;;;5097504;28;20457;-72
2023/09/29 08:06:51;;;;;;;0.10;0.10;;;18.20;99.90;;;;;;5107724;28;20062;-72
2023/09/29 08:09:17;;;;;;;0.10;0.10;;;18.20;99.90;;;;;;5092591;28;20059;-72
2023/09/29 08:11:43;;;;;;;0.20;0.20;;;18.30;99.90;;;;;;5086564;28;20476;-72
2023/09/29 08:14:09;;;;;;;0.20;0.20;;;18.30;99.90;;;;;;5082789;28;20494;-72
2023/09/29 08:16:36;;;;;;;0.10;0.10;;;18.40;99.90;;;;;;5095415;28;20127;-72
2023/09/29 08:19:03;;;;;;;0.20;0.20;;;18.50;99.90;;;;;;5086706;28;20082;-72
2023/09/29 08:21:32;;;;;;;0.20;0.20;;;18.50;99.90;;;;;;5083713;28;20380;-72
2023/09/29 08:24:01;;;;;;;0.20;0.20;;;18.60;99.90;;;;;;5087701;28;20048;-73
2023/09/29 08:26:27;;;;;;;0.20;0.20;;;18.70;99.90;;;;;;5108072;28;20490;-72
2023/09/29 08:28:52;;;;;;;0.20;0.20;;;18.70;99.90;;;;;;5084571;28;20070;-73
2023/09/29 08:31:19;;;;;;;0.10;0.10;;;18.80;99.90;;;;;;5084555;28;20479;-72
2023/09/29 08:33:44;;;;;;;0.10;0.10;;;18.80;99.90;;;;;;5087884;28;20052;-72
2023/09/29 08:36:10;;;;;;;0.20;0.20;;;18.90;99.90;;;;;;5087650;28;20051;-72
2023/09/29 08:38:36;;;;;;;0.10;0.10;;;19.00;99.90;;;;;;5083085;28;20039;-72
2023/09/29 08:41:05;;;;;;;0.20;0.20;;;19.00;99.90;;;;;;5086611;28;20071;-73
2023/09/29 08:43:33;;;;;;;0.20;0.20;;;19.10;99.90;;;;;;5084479;28;20046;-72
2023/09/29 08:45:59;;;;;;;0.20;0.20;;;19.20;99.90;;;;;;5075017;28;20047;-72
2023/09/29 08:48:32;;;;;;;0.20;0.20;;;19.20;99.90;;;;;;5086571;28;20048;-72
2023/09/29 08:51:01;;;;;;;0.20;0.20;;;19.30;99.90;;;;;;5085089;28;20077;-72
2023/09/29 08:53:28;;;;;;;0.10;0.10;;;19.40;99.90;;;;;;5084942;28;20048;-72
2023/09/29 08:55:54;;;;;;;0.17;0.17;;;19.40;99.90;;;;;;5085598;28;20067;-72
2023/09/29 08:58:24;;;;;;;0.20;0.20;;;19.50;99.90;;;;;;5088237;28;20047;-73
2023/09/29 09:00:50;;;;;;;0.20;0.20;;;19.60;99.90;;;;;;5087882;28;20048;-73
2023/09/29 09:03:17;;;;;;;0.20;0.20;;;19.60;99.90;;;;;;5089507;28;20039;-73
2023/09/29 09:05:43;;;;;;;0.10;0.10;;;19.70;99.90;;;;;;5089292;28;20048;-73
2023/09/29 09:08:13;;;;;;;0.13;0.13;;;19.70;99.90;;;;;;5093230;28;20028;-74
2023/09/29 09:10:40;;;;;;;0.20;0.20;;;19.90;99.90;;;;;;5089593;28;20050;-73
2023/09/29 09:13:07;;;;;;;0.20;0.20;;;19.90;99.90;;;;;;5093068;28;20498;-73
2023/09/29 09:15:32;;;;;;;0.20;0.20;;;20.00;99.90;;;;;;5088033;28;20052;-73
2023/09/29 09:17:58;;;;;;;0.20;0.20;;;20.00;99.90;;;;;;5094294;28;20422;-73
2023/09/29 09:20:25;;;;;;;0.20;0.20;;;20.10;99.90;;;;;;5092862;28;20479;-73
2023/09/29 09:23:04;;;;;;;0.20;0.20;;;20.10;99.90;;;;;;5101949;28;20051;-73
2023/09/29 09:25:35;;;;;;;0.10;0.10;;;20.10;99.90;;;;;;5094230;28;20138;-73
2023/09/29 09:28:01;;;;;;;;;;;20.10;99.90;;;;;;5092831;28;20047;-73
2023/09/29 09:30:27;;;;;;;0.10;0.10;;;20.20;99.90;;;;;;5090615;28;20397;-73
2023/09/29 09:32:53;;;;;;;0.20;0.20;;;20.20;99.90;;;;;;5090171;28;20069;-73
2023/09/29 09:35:29;;;;;;;0.20;0.20;;;20.30;99.90;;;;;;5092695;28;20039;-73
2023/09/29 09:37:56;;;;;;;0.28;0.28;;;20.30;99.90;;;;;;5090150;28;20051;-74
2023/09/29 09:40:26;;;;;;;0.20;0.20;;;20.40;99.90;;;;;;5094551;28;20046;-73
2023/09/29 09:42:53;;;;;;;0.20;0.20;;;20.40;99.90;;;;;;5094615;28;20044;-73
2023/09/29 09:45:25;;;;;;;0.20;0.20;;;20.50;99.90;;;;;;5091409;28;20101;-73
2023/09/29 09:47:59;;;;;;;0.10;0.10;;;20.60;99.90;;;;;;5090497;28;20035;-73
2023/09/29 09:50:29;;;;;;;0.20;0.20;;;20.70;99.90;;;;;;5090319;28;20495;-73
2023/09/29 09:52:55;;;;;;;0.20;0.20;;;20.80;99.90;;;;;;5093424;28;20036;-74
2023/09/29 09:55:33;;;;;;;0.17;0.17;;;20.90;99.90;;;;;;5094896;28;20045;-73
2023/09/29 09:58:00;;;;;;;0.20;0.20;;;20.90;99.90;;;;;;5094783;28;20075;-73
2023/09/29 10:00:26;;;;;;;0.20;0.20;;;20.90;99.90;;;;;;5095810;28;20059;-73
2023/09/29 10:02:57;;;;;;;0.20;0.20;;;20.90;99.90;;;;;;5092552;28;20048;-73
2023/09/29 10:05:41;;;;;;;0.20;0.20;;;21.00;99.90;;;;;;5082192;28;20584;-74
2023/09/29 10:08:30;;;;;;;0.20;0.20;;;21.00;99.90;;;;;;5091429;28;20044;-75
2023/09/29 10:11:16;;;;;;;0.20;0.20;;;21.00;99.90;;;;;;5093228;28;20479;-73
2023/09/29 10:13:44;;;;;;;0.20;0.20;;;21.00;99.90;;;;;;5090356;28;20128;-75
2023/09/29 10:16:55;;;;;;;0.20;0.20;;;21.00;99.90;;;;;;5095892;28;20044;-74
2023/09/29 10:19:20;;;;;;;0.20;0.20;;;21.00;99.90;;;;;;5089588;28;20446;-73
2023/09/29 10:21:49;;;;;;;0.10;0.10;;;21.00;99.90;;;;;;5092238;28;20040;-73
2023/09/29 10:24:28;;;;;;;0.20;0.20;;;21.00;99.90;;;;;;5097065;28;20073;-74
2023/09/29 10:26:58;;;;;;;0.20;0.20;;;21.00;99.90;;;;;;5094707;28;20133;-74
2023/09/29 10:29:29;;;;;;;0.20;0.20;;;21.10;99.90;;;;;;5087588;28;20616;-73
2023/09/29 10:32:07;;;;;;;;;;;21.10;99.90;;;;;;5106826;28;20310;-73
2023/09/29 10:34:34;;;;;;;0.20;0.20;;;21.20;99.90;;;;;;5087811;28;20402;-74
2023/09/29 10:37:00;;;;;;;0.20;0.20;;;21.30;99.90;;;;;;5096073;28;20487;-73
2023/09/29 10:39:32;;;;;;;0.20;0.20;;;21.40;99.90;;;;;;5094616;28;20120;-74
2023/09/29 10:42:22;;;;;;;0.20;0.20;;;21.40;99.90;;;;;;5097445;28;20044;-74
2023/09/29 10:45:06;;;;;;;0.20;0.20;;;21.40;99.90;;;;;;5105557;28;20521;-74
2023/09/29 10:47:32;;;;;;;0.20;0.20;;;21.30;99.90;;;;;;5076906;28;20318;-74
2023/09/29 10:50:30;;;;;;;0.20;0.20;;;21.30;99.90;;;;;;5087918;28;20052;-75
2023/09/29 10:53:02;;;;;;;0.15;0.15;;;21.20;99.90;;;;;;5077054;28;20052;-75
2023/09/29 10:55:28;;;;;;;0.20;0.20;;;21.10;99.90;;;;;;5089113;28;20056;-73
2023/09/29 10:58:12;;;;;;;0.20;0.20;;;21.00;99.90;;;;;;5080802;28;20400;-73
2023/09/29 11:00:50;;;;;;;0.20;0.20;;;21.10;99.90;;;;;;5084900;28;20083;-73
2023/09/29 11:03:22;;;;;;;0.20;0.20;;;21.00;99.90;;;;;;5095428;28;20040;-73
2023/09/29 11:05:53;;;;;;;0.20;0.20;;;21.00;99.90;;;;;;5084239;28;20044;-74
2023/09/29 11:08:28;;;;;;;0.20;0.20;;;20.90;99.90;;;;;;5087783;28;20494;-74
2023/09/29 11:11:06;;;;;;;0.20;0.20;;;20.90;99.90;;;;;;5085948;28;20054;-73
2023/09/29 11:13:32;;;;;;;0.20;0.20;;;20.90;99.90;;;;;;5085953;28;20462;-73
2023/09/29 11:15:59;;;;;;;0.20;0.20;;;20.90;99.90;;;;;;5092123;28;20083;-74
2023/09/29 11:18:33;;;;;;;0.10;0.10;;;20.90;99.90;;;;;;5092515;28;20557;-74
2023/09/29 11:21:00;;;;;;;0.50;0.50;;;20.90;99.90;;;;;;5093189;28;20044;-73
2023/09/29 11:23:28;;;;;;;0.20;0.20;;;20.90;99.90;;;;;;5105954;28;20083;-73
2023/09/29 11:25:59;;;;;;;0.20;0.20;;;20.90;99.90;;;;;;5090020;28;20052;-73
2023/09/29 11:28:28;;;;;;;0.20;0.20;;;20.90;99.90;;;;;;5092445;28;20444;-74
2023/09/29 11:30:54;;;;;;;0.20;0.20;;;20.80;99.90;;;;;;5091653;28;20031;-73
2023/09/29 11:33:20;;;;;;;0.20;0.20;;;20.70;99.90;;;;;;5092697;28;20376;-74
2023/09/29 11:35:46;;;;;;;0.20;0.20;;;20.80;99.90;;;;;;5097340;28;20454;-73
2023/09/29 11:38:19;;;;;;;0.20;0.20;;;20.80;99.90;;;;;;5091839;28;20079;-74
2023/09/29 11:40:52;;;;;;;0.20;0.20;;;20.80;99.90;;;;;;5095033;28;20716;-74
2023/09/29 11:43:21;;;;;;;0.20;0.20;;;20.70;99.90;;;;;;5088917;28;20063;-73
2023/09/29 11:45:46;;;;;;;0.20;0.20;;;20.70;99.90;;;;;;5084707;28;20083;-73
2023/09/29 11:48:12;;;;;;;0.20;0.20;;;20.70;99.90;;;;;;5088045;28;20079;-73
2023/09/29 11:50:38;;;;;;;0.20;0.20;;;20.60;99.90;;;;;;5087976;28;20048;-74
2023/09/29 11:53:06;;;;;;;0.20;0.20;;;20.60;99.90;;;;;;5088048;28;20040;-74
2023/09/29 11:55:38;;;;;;;0.20;0.20;;;20.60;99.90;;;;;;5088720;28;20633;-74
2023/09/29 11:58:04;;;;;;;0.20;0.20;;;20.60;99.90;;;;;;5082719;28;20040;-75
2023/09/29 12:00:30;;;;;;;0.20;0.20;;;20.50;99.90;;;;;;5090788;28;20108;-74
2023/09/29 12:02:56;;;;;;;0.20;0.20;;;20.40;99.90;;;;;;5087482;28;20523;-75
2023/09/29 12:05:22;;;;;;;0.20;0.20;;;;;;;;;;5085863;28;20062;-75
2023/09/29 12:07:48;;;;;;;0.20;0.20;;;20.40;99.90;;;;;;5082978;28;20093;-75
2023/09/29 12:10:14;;;;;;;0.20;0.20;;;20.30;99.90;;;;;;5084751;28;20074;-75
2023/09/29 12:12:40;;;;;;;0.20;0.20;;;20.30;99.90;;;;;;5082959;28;20122;-75
2023/09/29 12:15:07;;;;;;;0.20;0.20;;;20.40;99.90;;;;;;5091276;28;20563;-75
2023/09/29 12:17:33;;;;;;;0.20;0.20;;;20.40;99.90;;;;;;5097894;28;20040;-75
2023/09/29 12:19:58;;;;;;;0.20;0.20;;;20.30;99.90;;;;;;5086278;28;20063;-78
2023/09/29 12:22:24;;;;;;;0.20;0.20;;;20.30;99.90;;;;;;5096431;28;20518;-78
2023/09/29 12:24:50;;;;;;;0.20;0.20;;;20.20;99.90;;;;;;5090885;28;20138;-76
2023/09/29 12:27:15;;;;;;;0.13;0.13;;;20.10;99.90;;;;;;5086560;28;20131;-77
2023/09/29 12:29:41;;;;;;;0.20;0.20;;;20.00;99.90;;;;;;5086870;28;20052;-77
2023/09/29 12:32:07;;;;;;;0.20;0.20;;;19.80;99.90;;;;;;5084615;28;20086;-77
2023/09/29 12:34:33;;;;;;;0.20;0.20;;;19.70;99.90;;;;;;5087059;28;20036;-76
2023/09/29 12:36:59;;;;;;;0.10;0.10;;;19.70;99.90;;;;;;5091105;28;20517;-76
2023/09/29 12:39:25;;;;;;;0.20;0.20;;;19.50;99.90;;;;;;5098489;28;20070;-76
2023/09/29 12:41:51;;;;;;;0.20;0.20;;;19.40;99.90;;;;;;5084475;28;20036;-76
2023/09/29 12:44:17;;;;;;;0.20;0.20;;;19.30;99.90;;;;;;5108766;28;20399;-76
2023/09/29 12:46:43;;;;;;;0.20;0.20;;;19.20;99.90;;;;;;5089223;28;20036;-77
2023/09/29 12:49:08;;;;;;;0.20;0.20;;;19.10;99.90;;;;;;5084013;28;20123;-76
2023/09/29 12:51:34;;;;;;;0.20;0.20;;;19.00;99.90;;;;;;5090251;28;20451;-76